Dades de l'estació automàtica Port de Barcelona - Bocana Sud

?
?

Resum diari

16:30 TU
Dades diàries de l'estació meteorològica
Ratxa màxima del vent (10 m) 22.0 km/h - 90º 12:11 TU

El tram horari està expressat en Temps Universal (TU). Cal sumar una hora en horari d'hivern i dues en horari d'estiu per passar a l'hora oficial.

Port de Barcelona - Bocana Sud

Metadades estació meteorològica
Municipi El Prat de Llobregat
Comarca Baix Llobregat
Altitud 3 m
Data alta 08.04.2015
Estat actual Operativa
Dades de període
Període
TU
VVM (10 m)
km/h
DVM (10 m)
graus
VVX (10 m)
km/h
00:00 - 00:30 13.7 13 17.6
00:30 - 01:00 13.7 8 16.9
01:00 - 01:30 11.5 346 16.6
01:30 - 02:00 10.1 312 13.0
02:00 - 02:30 11.5 349 19.4
02:30 - 03:00 13.7 358 17.3
03:00 - 03:30 11.5 305 14.8
03:30 - 04:00 10.1 301 14.0
04:00 - 04:30 9.4 315 17.3
04:30 - 05:00 15.5 5 20.5
05:00 - 05:30 15.1 2 20.9
05:30 - 06:00 11.2 314 17.6
06:00 - 06:30 10.8 293 13.3
06:30 - 07:00 10.1 299 16.2
07:00 - 07:30 10.4 303 13.0
07:30 - 08:00 8.6 293 10.8
08:00 - 08:30 9.0 299 12.2
08:30 - 09:00 9.0 325 14.4
09:00 - 09:30 9.7 4 13.7
09:30 - 10:00 10.1 38 14.8
10:00 - 10:30 7.6 49 14.8
10:30 - 11:00 8.6 54 14.4
11:00 - 11:30 9.0 55 13.7
11:30 - 12:00 9.7 56 14.8
12:00 - 12:30 14.0 72 22.0
12:30 - 13:00 13.0 87 18.7
13:00 - 13:30 11.2 104 16.9
13:30 - 14:00 7.2 131 13.0
14:00 - 14:30 7.6 140 13.7
14:30 - 15:00 7.6 143 13.7
15:00 - 15:30 8.3 160 12.6
15:30 - 16:00 7.6 160 11.9
16:00 - 16:30 8.3 169 12.6
16:30 - 17:00 7.6 165 11.9
17:00 - 17:30 (s/d) (s/d) (s/d)

Les dades en taronja només han passat un control de qualitat automàtic. Resta pendent la seva validació definitiva.